createdAt,value
2019-03-27T00:00:10.278Z,44.75
2019-03-27T00:02:39.621Z,44.17
2019-03-27T00:05:09.018Z,44.95
2019-03-27T00:07:38.357Z,45.62
2019-03-27T00:10:08.687Z,45.47
2019-03-27T00:12:38.439Z,45.37
2019-03-27T00:15:13.452Z,45.00
2019-03-27T00:17:39.575Z,44.98
2019-03-27T00:20:09.223Z,44.79
2019-03-27T00:22:38.405Z,45.42
2019-03-27T00:25:08.681Z,45.55
2019-03-27T00:27:37.915Z,45.69
2019-03-27T00:30:08.299Z,46.46
2019-03-27T00:32:37.587Z,46.49
2019-03-27T00:35:08.371Z,45.83
2019-03-27T00:37:37.615Z,45.54
2019-03-27T00:40:06.837Z,45.67
2019-03-27T00:42:36.079Z,45.58
2019-03-27T00:45:07.187Z,45.25
2019-03-27T00:47:36.414Z,44.80
2019-03-27T00:50:07.496Z,45.65
2019-03-27T00:52:36.806Z,45.57
2019-03-27T00:55:09.131Z,45.97
2019-03-27T00:57:37.816Z,46.22
2019-03-27T01:00:13.101Z,45.38
2019-03-27T01:02:42.444Z,45.95
2019-03-27T01:05:11.737Z,44.67
2019-03-27T01:07:40.912Z,45.03
2019-03-27T01:10:10.215Z,46.24
2019-03-27T01:12:39.383Z,45.99
2019-03-27T01:15:08.555Z,46.20
2019-03-27T01:17:37.755Z,45.95
2019-03-27T01:20:07.088Z,44.78
2019-03-27T01:22:36.428Z,45.17
2019-03-27T01:25:06.614Z,45.00
2019-03-27T01:27:35.983Z,44.77
2019-03-27T01:30:05.821Z,44.70
2019-03-27T01:32:35.114Z,44.05
2019-03-27T01:35:04.287Z,44.27
2019-03-27T01:37:33.456Z,43.82
2019-03-27T01:40:02.740Z,43.53
2019-03-27T01:42:31.986Z,43.31
2019-03-27T01:45:01.179Z,44.07
2019-03-27T01:47:30.365Z,44.10
2019-03-27T01:49:59.547Z,44.14
2019-03-27T01:52:28.794Z,44.25
2019-03-27T01:54:57.965Z,44.27
2019-03-27T01:57:27.135Z,43.93
2019-03-27T01:59:56.443Z,43.99
2019-03-27T02:02:25.641Z,43.67
2019-03-27T02:04:54.844Z,43.24
2019-03-27T02:07:24.043Z,42.90
2019-03-27T02:09:53.261Z,42.44
2019-03-27T02:12:22.513Z,42.31
2019-03-27T02:14:51.713Z,42.44
2019-03-27T02:17:20.934Z,42.43
2019-03-27T02:19:50.189Z,42.10
2019-03-27T02:22:19.368Z,42.30
2019-03-27T02:24:48.588Z,42.19
2019-03-27T02:27:17.765Z,42.19
2019-03-27T02:29:47.105Z,42.53
2019-03-27T02:32:20.396Z,42.75
2019-03-27T02:34:47.282Z,43.07
2019-03-27T02:37:16.646Z,43.21
2019-03-27T02:39:45.842Z,43.23
2019-03-27T02:42:15.017Z,43.61
2019-03-27T02:44:44.241Z,43.82
2019-03-27T02:47:13.438Z,43.27
2019-03-27T02:49:42.612Z,42.90
2019-03-27T02:52:11.901Z,42.67
2019-03-27T02:54:41.128Z,43.19
2019-03-27T02:57:10.297Z,43.66
2019-03-27T02:59:41.883Z,43.50
2019-03-27T03:02:11.191Z,43.30
2019-03-27T03:04:40.475Z,43.43
2019-03-27T03:07:09.847Z,43.38
2019-03-27T03:09:39.182Z,43.45
2019-03-27T03:12:08.337Z,43.08
2019-03-27T03:14:37.625Z,43.19
2019-03-27T03:17:06.937Z,42.89
2019-03-27T03:19:36.172Z,43.34
2019-03-27T03:22:05.525Z,43.46
2019-03-27T03:24:34.671Z,43.44
2019-03-27T03:27:03.968Z,43.34
2019-03-27T03:29:33.134Z,43.41
2019-03-27T03:32:02.411Z,43.18
2019-03-27T03:34:31.749Z,43.82
2019-03-27T03:37:01.054Z,44.22
2019-03-27T03:39:30.328Z,43.80
2019-03-27T03:41:59.518Z,43.46
2019-03-27T03:44:28.789Z,43.29
2019-03-27T03:47:00.137Z,43.19
2019-03-27T03:49:28.926Z,43.20
2019-03-27T03:51:58.192Z,43.44
2019-03-27T03:54:27.434Z,43.56
2019-03-27T03:56:57.031Z,43.78
2019-03-27T03:59:27.837Z,43.69
2019-03-27T04:01:57.003Z,43.91
2019-03-27T04:04:26.225Z,43.87
2019-03-27T04:06:55.469Z,43.66
2019-03-27T04:09:24.652Z,43.89
2019-03-27T04:11:53.951Z,43.77
2019-03-27T04:14:23.323Z,44.17
2019-03-27T04:16:53.640Z,44.98
2019-03-27T04:19:22.949Z,44.75
2019-03-27T04:21:52.277Z,45.04
2019-03-27T04:24:21.454Z,45.48
2019-03-27T04:26:50.703Z,45.44
2019-03-27T04:29:19.905Z,45.21
2019-03-27T04:31:49.238Z,45.38
2019-03-27T04:34:18.490Z,45.62
2019-03-27T04:36:47.687Z,45.60
2019-03-27T04:39:16.954Z,45.88
2019-03-27T04:41:46.159Z,45.70
2019-03-27T04:44:15.433Z,45.51
2019-03-27T04:46:44.749Z,45.27
2019-03-27T04:49:14.108Z,45.37
2019-03-27T04:51:43.495Z,45.53
2019-03-27T04:54:12.749Z,46.05
2019-03-27T04:56:41.956Z,46.48
2019-03-27T04:59:11.311Z,46.35
2019-03-27T05:01:40.550Z,46.21
2019-03-27T05:04:10.037Z,46.17
2019-03-27T05:06:39.487Z,46.09
2019-03-27T05:09:08.734Z,45.33
2019-03-27T05:11:38.048Z,45.14
2019-03-27T05:14:07.390Z,45.27
2019-03-27T05:16:36.654Z,45.32
2019-03-27T05:19:05.939Z,44.27
2019-03-27T05:21:35.296Z,43.75
2019-03-27T05:24:04.551Z,43.94
2019-03-27T05:26:33.760Z,43.20
2019-03-27T05:29:03.019Z,44.30
2019-03-27T05:31:32.462Z,44.21
2019-03-27T05:34:01.755Z,44.46
2019-03-27T05:36:31.021Z,44.73
2019-03-27T05:39:00.297Z,45.08
2019-03-27T05:41:29.701Z,44.98
2019-03-27T05:43:59.060Z,44.61
2019-03-27T05:46:29.241Z,43.52
2019-03-27T05:48:58.660Z,43.31
2019-03-27T05:51:28.373Z,42.83
2019-03-27T05:53:57.635Z,43.24
2019-03-27T05:56:28.683Z,43.05
2019-03-27T05:58:58.052Z,43.43
2019-03-27T06:01:27.449Z,41.46
2019-03-27T06:03:56.892Z,41.72
2019-03-27T06:06:26.125Z,42.45
2019-03-27T06:08:55.389Z,42.53
2019-03-27T06:11:24.671Z,42.04
2019-03-27T06:13:54.060Z,41.74
2019-03-27T06:16:23.397Z,41.84
2019-03-27T06:18:52.737Z,41.28
2019-03-27T06:21:22.072Z,40.28
2019-03-27T06:23:51.257Z,39.86
2019-03-27T06:26:21.274Z,40.21
2019-03-27T06:28:50.528Z,40.71
2019-03-27T06:31:19.856Z,40.36
2019-03-27T06:33:49.821Z,40.77
2019-03-27T06:36:19.090Z,41.12
2019-03-27T06:38:48.368Z,40.73
2019-03-27T06:41:17.794Z,40.41
2019-03-27T06:43:47.122Z,40.19
2019-03-27T06:46:16.381Z,39.67
2019-03-27T06:48:45.751Z,37.45
2019-03-27T06:51:15.152Z,38.07
2019-03-27T06:53:44.617Z,38.09
2019-03-27T06:56:14.254Z,38.54
2019-03-27T06:58:53.956Z,36.65
2019-03-27T07:01:14.830Z,36.07
2019-03-27T07:03:44.322Z,35.54
2019-03-27T07:06:13.760Z,34.96
2019-03-27T07:08:43.189Z,35.09
2019-03-27T07:11:12.623Z,34.51
2019-03-27T07:13:41.954Z,34.83
2019-03-27T07:16:11.217Z,34.70
2019-03-27T07:18:40.767Z,34.99
2019-03-27T07:21:09.928Z,36.03
2019-03-27T07:23:39.290Z,36.17
2019-03-27T07:26:09.053Z,36.06
2019-03-27T07:28:38.326Z,35.50
2019-03-27T07:31:07.655Z,35.56
2019-03-27T07:33:36.934Z,36.19
2019-03-27T07:36:06.358Z,36.45
2019-03-27T07:38:35.737Z,37.51
2019-03-27T07:41:05.075Z,36.48
2019-03-27T07:43:34.488Z,35.29
2019-03-27T07:46:03.821Z,34.50
2019-03-27T07:48:33.068Z,32.18
2019-03-27T07:51:02.477Z,30.22
2019-03-27T07:53:31.734Z,29.75
2019-03-27T07:56:00.988Z,28.80
2019-03-27T07:58:30.393Z,27.23
2019-03-27T08:00:59.722Z,29.61
2019-03-27T08:03:29.220Z,30.06
2019-03-27T08:05:58.575Z,30.12
2019-03-27T08:08:28.110Z,29.41
2019-03-27T08:10:57.375Z,29.95
2019-03-27T08:13:26.648Z,30.04
2019-03-27T08:15:56.047Z,31.44
2019-03-27T08:18:25.239Z,31.44
2019-03-27T08:20:54.609Z,30.11
2019-03-27T08:23:23.883Z,27.34
2019-03-27T08:25:53.133Z,27.21
2019-03-27T08:28:22.596Z,27.76
2019-03-27T08:30:51.993Z,26.74
2019-03-27T08:33:21.316Z,26.68
2019-03-27T08:35:50.619Z,26.06
2019-03-27T08:38:20.062Z,25.35
2019-03-27T08:40:49.308Z,24.48
2019-03-27T08:43:21.456Z,23.26
2019-03-27T08:45:49.705Z,22.76
2019-03-27T08:48:18.876Z,22.21
2019-03-27T08:50:48.258Z,20.50
2019-03-27T08:53:17.531Z,21.93
2019-03-27T08:55:46.918Z,21.47
2019-03-27T08:58:16.852Z,22.29
2019-03-27T09:00:50.222Z,21.67
2019-03-27T09:03:19.623Z,21.79
2019-03-27T09:05:49.127Z,21.93
2019-03-27T09:08:18.590Z,21.17
2019-03-27T09:10:47.975Z,20.19
2019-03-27T09:13:17.325Z,19.73
2019-03-27T09:15:47.109Z,18.47
2019-03-27T09:18:16.991Z,17.70
2019-03-27T09:20:46.493Z,17.99
2019-03-27T09:23:15.806Z,17.88
2019-03-27T09:25:45.249Z,16.85
2019-03-27T09:28:14.502Z,16.28
2019-03-27T09:30:43.758Z,15.83
2019-03-27T09:33:13.039Z,15.59
2019-03-27T09:35:42.359Z,15.40
2019-03-27T09:38:11.736Z,15.23
2019-03-27T09:40:41.065Z,14.31
2019-03-27T09:43:10.451Z,15.32
2019-03-27T09:45:39.809Z,15.78
2019-03-27T09:48:09.074Z,15.57
2019-03-27T09:50:38.393Z,16.34
2019-03-27T09:53:07.659Z,16.17
2019-03-27T09:55:36.978Z,16.46
2019-03-27T09:58:06.283Z,15.61
2019-03-27T10:00:44.621Z,15.63
2019-03-27T10:03:13.837Z,15.54
2019-03-27T10:05:43.260Z,15.32
2019-03-27T10:08:12.639Z,15.61
2019-03-27T10:10:42.074Z,16.05
2019-03-27T10:13:11.434Z,16.02
2019-03-27T10:15:40.778Z,16.41
2019-03-27T10:18:10.047Z,16.67
2019-03-27T10:20:39.292Z,16.44
2019-03-27T10:23:08.611Z,16.84
2019-03-27T10:25:37.932Z,16.92
2019-03-27T10:28:07.388Z,16.84
2019-03-27T10:30:36.685Z,16.87
2019-03-27T10:33:06.024Z,16.66
2019-03-27T10:35:35.424Z,17.78
2019-03-27T10:38:04.760Z,17.87
2019-03-27T10:40:34.156Z,18.21
2019-03-27T10:43:03.583Z,18.63
2019-03-27T10:45:33.557Z,17.85
2019-03-27T10:48:02.817Z,17.55
2019-03-27T10:50:32.087Z,18.66
2019-03-27T10:53:01.356Z,19.62
2019-03-27T10:55:34.254Z,19.83
2019-03-27T10:58:01.748Z,20.75
2019-03-27T11:00:31.080Z,21.38
2019-03-27T11:03:00.392Z,21.70
2019-03-27T11:05:29.773Z,20.55
2019-03-27T11:07:59.096Z,20.38
2019-03-27T14:01:35.675Z,19.77
2019-03-27T14:04:05.155Z,21.12
2019-03-27T14:06:34.465Z,20.38
2019-03-27T14:09:05.316Z,20.20
2019-03-27T14:11:34.499Z,19.87
2019-03-27T14:14:11.203Z,19.73
2019-03-27T14:16:34.948Z,19.76
2019-03-27T14:19:04.143Z,19.90
2019-03-27T14:21:33.637Z,19.67
2019-03-27T14:24:02.831Z,19.97
2019-03-27T14:26:44.297Z,19.76
2019-03-27T14:29:03.051Z,19.27
2019-03-27T14:31:32.227Z,20.30
2019-03-27T14:34:01.471Z,20.94
2019-03-27T14:36:30.815Z,20.36
2019-03-27T14:39:00.056Z,20.81
2019-03-27T14:41:29.239Z,21.07
2019-03-27T14:43:58.421Z,20.79
2019-03-27T14:46:28.822Z,21.21
2019-03-27T14:48:58.134Z,21.36
2019-03-27T14:51:27.405Z,21.15
2019-03-27T14:53:56.607Z,21.18
2019-03-27T14:56:26.053Z,21.40
2019-03-27T14:58:55.226Z,21.70
2019-03-27T15:01:24.479Z,20.73
2019-03-27T15:03:53.703Z,21.39
2019-03-27T15:06:24.572Z,21.80
2019-03-27T15:08:54.013Z,21.82
2019-03-27T15:11:23.272Z,21.96
2019-03-27T15:13:52.521Z,22.26
2019-03-27T15:16:21.725Z,22.09
2019-03-27T15:18:53.995Z,22.27
2019-03-27T15:21:23.203Z,22.02
2019-03-27T15:23:52.461Z,21.88
2019-03-27T15:26:21.699Z,21.83
2019-03-27T15:28:51.249Z,22.09
2019-03-27T15:31:21.098Z,22.65
2019-03-27T15:33:50.373Z,22.31
2019-03-27T15:36:19.559Z,22.46
2019-03-27T15:38:48.791Z,22.24
2019-03-27T15:41:18.229Z,21.99
2019-03-27T15:43:47.411Z,22.22
2019-03-27T15:46:16.715Z,21.66
2019-03-27T15:48:45.926Z,22.13
2019-03-27T15:51:15.111Z,22.19
2019-03-27T15:53:47.209Z,21.67
2019-03-27T15:56:15.404Z,22.40
2019-03-27T15:58:44.646Z,22.47
2019-03-27T16:01:13.849Z,22.46
2019-03-27T16:03:43.123Z,23.03
2019-03-27T16:06:12.351Z,22.98
2019-03-27T16:08:41.627Z,23.29
2019-03-27T16:11:10.862Z,22.99
2019-03-27T16:13:40.278Z,22.66
2019-03-27T16:16:09.528Z,22.35
2019-03-27T16:18:38.799Z,22.85
2019-03-27T16:21:08.038Z,22.67
2019-03-27T16:23:37.240Z,22.38
2019-03-27T16:26:06.417Z,22.27
2019-03-27T16:28:35.627Z,22.16
2019-03-27T16:31:04.909Z,21.93
2019-03-27T16:33:34.140Z,22.71
2019-03-27T16:36:03.319Z,22.73
2019-03-27T16:38:32.501Z,23.10
2019-03-27T16:41:01.732Z,23.38
2019-03-27T16:43:30.925Z,23.86
2019-03-27T16:46:00.136Z,23.88
2019-03-27T16:48:29.444Z,24.07
2019-03-27T16:50:58.627Z,23.73
2019-03-27T16:53:27.813Z,24.27
2019-03-27T16:55:57.032Z,24.55
2019-03-27T16:58:26.852Z,24.42
2019-03-27T17:00:56.127Z,24.55
2019-03-27T17:03:25.294Z,24.34
2019-03-27T17:05:54.674Z,24.24
2019-03-27T17:08:23.804Z,24.16
2019-03-27T17:10:53.004Z,24.47
2019-03-27T17:13:22.184Z,24.83
2019-03-27T17:15:51.420Z,24.68
2019-03-27T17:18:20.779Z,25.16
2019-03-27T17:20:49.979Z,25.18
2019-03-27T17:23:19.204Z,25.41
2019-03-27T17:25:48.547Z,25.19
2019-03-27T17:28:17.747Z,25.17
2019-03-27T17:30:47.113Z,25.25
2019-03-27T17:33:16.369Z,25.11
2019-03-27T17:35:45.712Z,25.29
2019-03-27T17:38:15.011Z,25.25
2019-03-27T17:40:44.298Z,25.44
2019-03-27T17:43:13.597Z,25.88
2019-03-27T17:45:42.850Z,26.02
2019-03-27T17:48:12.016Z,26.09
2019-03-27T17:50:41.208Z,26.02
2019-03-27T17:53:10.410Z,25.94
2019-03-27T17:55:39.625Z,26.04
2019-03-27T17:58:08.887Z,25.98
2019-03-27T18:00:47.164Z,26.17
2019-03-27T18:03:16.404Z,25.97
2019-03-27T18:05:45.674Z,26.34
2019-03-27T18:08:15.092Z,26.26
2019-03-27T18:10:44.311Z,26.16
2019-03-27T18:13:13.623Z,25.99
2019-03-27T18:15:42.803Z,25.95
2019-03-27T18:18:12.057Z,25.96
2019-03-27T18:20:41.392Z,26.22
2019-03-27T18:23:10.579Z,26.27
2019-03-27T18:25:39.757Z,26.40
2019-03-27T18:28:09.065Z,26.57
2019-03-27T18:30:39.412Z,26.42
2019-03-27T18:33:08.698Z,26.63
2019-03-27T18:35:37.979Z,26.36
2019-03-27T18:38:07.464Z,26.53
2019-03-27T18:40:36.646Z,26.41
2019-03-27T18:43:06.462Z,26.59
2019-03-27T18:45:35.670Z,26.78
2019-03-27T18:48:04.989Z,27.22
2019-03-27T18:50:34.880Z,26.72
2019-03-27T18:53:04.089Z,26.93
2019-03-27T18:55:33.368Z,27.21
2019-03-27T18:58:02.684Z,27.17
2019-03-27T19:00:32.224Z,26.99
2019-03-27T19:03:01.581Z,26.94
2019-03-27T19:05:30.763Z,26.87
2019-03-27T19:08:00.226Z,27.75
2019-03-27T19:10:29.417Z,28.17
2019-03-27T19:12:58.719Z,28.07
2019-03-27T19:15:28.029Z,28.26
2019-03-27T19:17:57.206Z,28.08
2019-03-27T19:20:26.521Z,27.98
2019-03-27T19:22:55.705Z,28.09
2019-03-27T19:25:25.005Z,27.85
2019-03-27T19:28:13.766Z,28.30
2019-03-27T19:30:42.996Z,27.87
2019-03-27T19:33:12.189Z,27.72
2019-03-27T19:35:41.510Z,27.76
2019-03-27T19:38:11.018Z,28.07
2019-03-27T19:40:40.309Z,27.92
2019-03-27T19:43:09.633Z,28.03
2019-03-27T19:45:39.029Z,28.23
2019-03-27T19:48:08.209Z,28.64
2019-03-27T19:50:37.462Z,28.32
2019-03-27T19:53:06.726Z,27.88
2019-03-27T19:55:35.918Z,28.24
2019-03-27T19:58:05.182Z,28.26
2019-03-27T20:00:34.482Z,27.89
2019-03-27T20:03:03.775Z,28.20
2019-03-27T20:05:33.108Z,28.77
2019-03-27T20:08:02.396Z,28.88
2019-03-27T20:10:31.602Z,29.10
2019-03-27T20:13:00.954Z,28.80
2019-03-27T20:15:30.187Z,28.92
2019-03-27T20:17:59.367Z,28.65
2019-03-27T20:20:28.547Z,28.66
2019-03-27T20:22:57.780Z,28.78
2019-03-27T20:25:26.965Z,28.84
2019-03-27T20:27:56.178Z,28.93
2019-03-27T20:30:26.931Z,28.92
2019-03-27T20:32:56.489Z,29.00
2019-03-27T20:35:25.668Z,28.98
2019-03-27T20:37:55.092Z,28.74
2019-03-27T20:40:27.546Z,28.92
2019-03-27T20:42:55.418Z,29.10
2019-03-27T20:45:24.711Z,28.94
2019-03-27T20:47:54.552Z,29.04
2019-03-27T20:50:26.811Z,29.84
2019-03-27T20:52:55.084Z,29.56
2019-03-27T20:55:30.003Z,29.78
2019-03-27T20:57:55.449Z,29.80
2019-03-27T21:00:24.714Z,29.38
2019-03-27T21:02:53.995Z,29.11
2019-03-27T21:05:23.188Z,29.04
2019-03-27T21:07:52.479Z,29.69
2019-03-27T21:10:21.665Z,30.64
2019-03-27T21:12:50.869Z,30.52
2019-03-27T21:15:20.152Z,29.94
2019-03-27T21:17:49.452Z,30.51
2019-03-27T21:20:18.704Z,30.06
2019-03-27T21:22:47.889Z,29.88
2019-03-27T21:25:17.101Z,29.70
2019-03-27T21:27:46.363Z,29.37
2019-03-27T21:30:16.439Z,29.50
2019-03-27T21:32:45.683Z,29.64
2019-03-27T21:35:14.982Z,29.79
2019-03-27T21:37:44.241Z,29.67
2019-03-27T21:40:13.421Z,29.61
2019-03-27T21:42:42.608Z,29.77
2019-03-27T21:45:11.914Z,29.74
2019-03-27T21:47:41.232Z,30.04
2019-03-27T21:50:10.412Z,30.06
2019-03-27T21:52:39.805Z,30.08
2019-03-27T21:55:22.120Z,30.15
2019-03-27T21:57:40.204Z,30.49
2019-03-27T22:00:09.409Z,30.75
2019-03-27T22:02:39.802Z,31.05
2019-03-27T22:05:09.097Z,31.75
2019-03-27T22:07:38.315Z,32.38
2019-03-27T22:10:07.887Z,33.07
2019-03-27T22:12:38.463Z,33.85
2019-03-27T22:15:08.565Z,34.74
2019-03-27T22:17:37.858Z,35.44
2019-03-27T22:20:07.437Z,36.03
2019-03-27T22:22:36.835Z,36.21
2019-03-27T22:25:07.823Z,36.60
2019-03-27T22:27:37.017Z,37.12
2019-03-27T22:30:07.946Z,37.52
2019-03-27T22:32:37.185Z,38.06
2019-03-27T22:35:07.436Z,38.86
2019-03-27T22:37:36.791Z,39.12
2019-03-27T22:40:07.361Z,40.30
2019-03-27T22:42:36.886Z,40.87
2019-03-27T22:45:06.648Z,41.32
2019-03-27T22:47:35.864Z,41.85
2019-03-27T22:50:08.228Z,42.23
2019-03-27T22:52:38.080Z,42.28
2019-03-27T22:55:08.238Z,42.62
2019-03-27T22:57:37.491Z,42.52
2019-03-27T23:00:12.890Z,43.21
2019-03-27T23:02:42.230Z,43.29
2019-03-27T23:05:11.722Z,43.69
2019-03-27T23:07:41.023Z,43.55
2019-03-27T23:10:10.346Z,43.42
2019-03-27T23:12:39.600Z,43.59
2019-03-27T23:15:10.845Z,43.19
2019-03-27T23:17:40.132Z,43.30
2019-03-27T23:20:10.220Z,43.65
2019-03-27T23:22:39.403Z,43.81
2019-03-27T23:25:09.794Z,44.06
2019-03-27T23:27:38.979Z,44.85
2019-03-27T23:30:08.477Z,45.02
2019-03-27T23:32:37.788Z,45.66
2019-03-27T23:35:07.782Z,46.19
2019-03-27T23:37:36.983Z,46.68
2019-03-27T23:40:06.718Z,46.87
2019-03-27T23:42:35.907Z,47.21
2019-03-27T23:45:08.430Z,47.23
2019-03-27T23:47:37.702Z,46.83
2019-03-27T23:50:09.839Z,46.95
2019-03-27T23:52:39.048Z,46.85
2019-03-27T23:55:08.254Z,46.70
2019-03-27T23:57:37.508Z,47.44
